メインページ
METAR-TAF:

METAR-TAF

空港 :

ルクセンブルク-フィンデル空港

ルクセンブルク, ルクセンブルク

緯度: 49-37N, 経度: 006-13E, 海抜: 376m

現時点の気象観測

当レポートは28分前の10:50(UTC)に作成
東/南東の風 4kt、東/北東から南東の間で変化する
気温 7°C
湿度 100%
気圧 1028 hPa
視程: 1800m
高度100ft以下の雲はほとんどない
高度100ftの雲は散在している
部分的に霧に覆われる

METAR: ELLX 141050Z 11004KT 070V140 4000 1800NE R24/0225V1000U PRFG FEW000 SCT001 07/07 Q1028 NOSIG

時間: 12:18 (11:18 UTC)

予報

当レポートは6時間18分前の05:00(UTC)に作成
予報は14日の 06時(UTC)から 15日の 12時(UTC)まで有効
南/南西の風 6kt
視程: 6000m
14日の 06時(UTC)から 14日の 11時(UTC)まで一時的に
変向風 2kt
視程: 0200m
高度300ftの
14日の 18時(UTC)から 15日の 10時(UTC)まで一時的に
視程: 1200m
散在霧

TAF: ELLX 140500Z 1406/1512 20006KT 6000 NSC TEMPO 1406/1411 VRB02KT 0200 FG VV003 TEMPO 1418/1510 1200 BCFG

4,000以上の空港の気象観測と天気予報(METAR報とTAF報)

利用可能な観測所は地図上に黄色い丸と赤い丸で示す。

丸の上にカーソルを重ねると観測所名を参照できる。

次にクリックすると気象観測と天気予報を参照できる。

マップの切り替え:黒色「×」印の緑ボタンをクリックして拡大、「-」印の緑ボタンをクリックして縮小、緑色の三角印をクリックして隣りの地図に切り替え


METAR-TAF: